Time;durP1;ratioP1;P1;durP2;ratioP2;P2;SDS_P1;SDS_P2;PMS_P1;PMS_P2;Temp;Humidity;BMP_temperature;BMP_pressure;BME280_temperature;BME280_humidity;BME280_pressure;Samples;Min_cycle;Max_cycle;Signal;HPM_P1;HPM_P2
2022/07/01 00:01:38;;;;;;;1999.90;999.90;;;;;;;22.19;63.42;95197.25;5024113;28;20432;-70
2022/07/01 00:04:03;;;;;;;1999.90;999.90;;;;;;;21.93;64.90;95219.09;5029601;28;20029;-69
2022/07/01 00:06:29;;;;;;;1999.90;999.90;;;;;;;21.78;66.42;95269.63;5030040;28;20056;-70
2022/07/01 00:08:54;;;;;;;1999.90;999.90;;;;;;;21.13;67.21;95199.72;5030910;28;20025;-67
2022/07/01 00:11:20;;;;;;;1999.90;999.90;;;;;;;20.98;67.34;95182.56;5027850;28;20029;-70
2022/07/01 00:13:45;;;;;;;1999.90;999.90;;;;;;;20.92;67.32;95184.03;5030002;28;20036;-70
2022/07/01 00:16:11;;;;;;;1999.90;999.90;;;;;;;20.91;67.60;95217.66;5028350;28;20021;-70
2022/07/01 00:18:36;;;;;;;1999.90;999.90;;;;;;;21.09;66.60;95258.41;5011601;28;20036;-68
2022/07/01 00:21:02;;;;;;;1999.90;999.90;;;;;;;20.83;65.98;95183.53;5028328;28;20033;-67
2022/07/01 00:23:28;;;;;;;1999.90;999.90;;;;;;;21.00;65.70;95220.84;5029677;28;20026;-69
2022/07/01 00:25:53;;;;;;;1999.90;999.90;;;;;;;20.75;65.75;95215.91;5029145;28;20032;-69
2022/07/01 00:28:19;;;;;;;1999.90;999.90;;;;;;;20.62;65.13;95194.88;5030557;28;20033;-69
2022/07/01 00:30:45;;;;;;;1999.90;999.90;;;;;;;20.61;64.77;95231.94;5027551;28;20021;-67
2022/07/01 00:33:10;;;;;;;1999.90;999.90;;;;;;;20.75;63.38;95210.50;5029909;28;20056;-67
2022/07/01 00:35:35;;;;;;;1999.90;999.90;;;;;;;20.93;63.17;95224.22;5029234;28;20030;-70
2022/07/01 00:38:01;;;;;;;1999.90;999.90;;;;;;;20.93;61.93;95223.44;5030047;28;20036;-70
2022/07/01 00:40:26;;;;;;;1999.90;999.90;;;;;;;20.80;61.67;95230.25;5024120;28;20026;-70
2022/07/01 00:42:52;;;;;;;1999.90;999.90;;;;;;;21.15;61.26;95273.19;5030297;28;20029;-70
2022/07/01 00:45:17;;;;;;;1999.90;999.90;;;;;;;21.29;61.26;95290.38;5026532;28;20488;-70
2022/07/01 00:47:43;;;;;;;1999.90;999.90;;;;;;;21.16;60.33;95245.00;5019579;28;20163;-70
2022/07/01 00:50:12;;;;;;;1999.90;999.90;;;;;;;20.99;60.37;95233.59;5028113;28;20021;-70
2022/07/01 00:52:38;;;;;;;1999.90;999.90;;;;;;;21.15;59.70;95227.97;5020342;28;20601;-69
2022/07/01 00:55:06;;;;;;;1999.90;999.90;;;;;;;20.69;61.68;95265.25;5022665;28;20021;-70
2022/07/01 00:57:34;;;;;;;1999.90;999.90;;;;;;;21.26;59.72;95287.63;5029702;28;20118;-70
2022/07/01 01:00:01;;;;;;;1999.90;999.90;;;;;;;20.42;60.58;95278.75;5027738;28;20470;-69
2022/07/01 01:02:26;;;;;;;1999.90;999.90;;;;;;;20.38;60.40;95250.13;5026901;28;20036;-67
2022/07/01 01:04:51;;;;;;;1999.90;999.90;;;;;;;20.43;59.58;95228.19;5029026;28;20045;-67
2022/07/01 01:07:17;;;;;;;1999.90;999.90;;;;;;;20.81;58.86;95267.72;5029799;28;20060;-67
2022/07/01 01:09:42;;;;;;;1999.90;999.90;;;;;;;21.32;58.10;95321.34;5027581;28;20116;-68
2022/07/01 01:12:11;;;;;;;1999.90;999.90;;;;;;;21.21;57.60;95258.19;5027986;28;20017;-68
2022/07/01 01:14:49;;;;;;;1999.90;999.90;;;;;;;21.85;56.59;95320.38;5028895;28;20025;-69
2022/07/01 01:17:16;;;;;;;1999.90;999.90;;;;;;;22.27;54.74;95309.97;5026115;28;20120;-68
2022/07/01 01:19:42;;;;;;;1999.90;999.90;;;;;;;22.73;54.43;95311.47;5019125;28;20025;-68
2022/07/01 01:22:09;;;;;;;1999.90;999.90;;;;;;;22.21;55.32;95316.09;5027923;28;20424;-68
2022/07/01 01:24:36;;;;;;;1999.90;999.90;;;;;;;21.12;58.68;95296.31;5028509;28;20108;-68
2022/07/01 01:27:05;;;;;;;1999.90;999.90;;;;;;;21.49;58.23;95303.75;5028316;28;20160;-68
2022/07/01 01:29:31;;;;;;;1999.90;999.90;;;;;;;21.09;58.90;95307.91;5027882;28;20478;-68
2022/07/01 01:31:56;;;;;;;1999.90;999.90;;;;;;;20.84;60.81;95315.69;5028015;28;20121;-67
2022/07/01 01:34:21;;;;;;;1999.90;999.90;;;;;;;21.44;58.11;95302.16;5026873;28;20490;-68
2022/07/01 01:36:47;;;;;;;1999.90;999.90;;;;;;;21.25;59.17;95305.78;5027682;28;20029;-68
2022/07/01 01:39:18;;;;;;;1999.90;999.90;;;;;;;21.19;59.19;95292.94;5026346;28;20031;-68
2022/07/01 01:41:44;;;;;;;1999.90;999.90;;;;;;;21.41;58.61;95297.50;5029091;28;20405;-68
2022/07/01 01:44:10;;;;;;;1999.90;999.90;;;;;;;20.98;59.61;95280.69;5027530;28;20394;-68
2022/07/01 01:46:37;;;;;;;1999.90;999.90;;;;;;;20.67;61.29;95295.34;5026819;28;20028;-68
2022/07/01 01:49:03;;;;;;;1999.90;999.90;;;;;;;20.46;61.99;95271.50;5026659;28;20880;-68
2022/07/01 01:51:29;;;;;;;1999.90;999.90;;;;;;;21.08;60.57;95287.38;5028830;28;20101;-68
2022/07/01 01:53:55;;;;;;;1999.90;999.90;;;;;;;20.91;60.87;95267.09;5028406;28;20025;-68
2022/07/01 01:56:20;;;;;;;1999.90;999.90;;;;;;;20.94;61.21;95273.72;5027206;28;20532;-68
2022/07/01 01:58:46;;;;;;;1999.90;999.90;;;;;;;21.14;60.64;95282.44;5028584;28;20029;-67
2022/07/01 02:01:12;;;;;;;1999.90;999.90;;;;;;;20.87;61.82;95282.47;5026084;28;20029;-68
2022/07/01 02:03:39;;;;;;;1999.90;999.90;;;;;;;21.02;61.37;95286.94;5018898;28;20039;-67
2022/07/01 02:06:06;;;;;;;1999.90;999.90;;;;;;;21.36;60.17;95283.50;5027018;28;20041;-68
2022/07/01 02:08:32;;;;;;;1999.90;999.90;;;;;;;21.00;61.96;95294.63;5028070;28;20022;-68
2022/07/01 02:10:58;;;;;;;1999.90;999.90;;;;;;;20.84;61.67;95282.44;5027714;28;20066;-68
2022/07/01 02:13:23;;;;;;;1999.90;999.90;;;;;;;21.05;61.04;95287.34;5026502;28;20513;-69
2022/07/01 02:15:49;;;;;;;1999.90;999.90;;;;;;;21.25;61.07;95292.25;5028013;28;20244;-68
2022/07/01 02:18:14;;;;;;;1999.90;999.90;;;;;;;21.44;60.03;95304.84;5026265;28;20029;-68
2022/07/01 02:20:41;;;;;;;1999.90;999.90;;;;;;;20.93;61.62;95305.34;5027336;28;20036;-68
2022/07/01 02:23:06;;;;;;;1999.90;999.90;;;;;;;20.80;62.40;95305.94;5028432;28;20029;-69
2022/07/01 02:25:31;;;;;;;1999.90;999.90;;;;;;;20.80;62.50;95308.66;5030988;28;20386;-68
2022/07/01 02:27:58;;;;;;;1999.90;999.90;;;;;;;20.46;63.48;95313.91;5031960;28;20037;-68
2022/07/01 02:30:23;;;;;;;1999.90;999.90;;;;;;;20.66;62.97;95318.09;5030608;28;20095;-68
2022/07/01 02:32:49;;;;;;;1999.90;999.90;;;;;;;20.90;62.30;95325.03;5030892;28;20477;-68
2022/07/01 02:35:14;;;;;;;1999.90;999.90;;;;;;;21.06;61.03;95314.03;5031691;28;20056;-68
2022/07/01 02:37:39;;;;;;;1999.90;999.90;;;;;;;21.53;59.92;95328.94;5031092;28;20037;-68
2022/07/01 02:40:05;;;;;;;1999.90;999.90;;;;;;;21.63;59.79;95333.69;5026365;28;20040;-68
2022/07/01 02:42:35;;;;;;;1999.90;999.90;;;;;;;21.78;59.48;95342.75;5018122;28;20025;-68
2022/07/01 02:45:02;;;;;;;1999.90;999.90;;;;;;;22.29;58.19;95348.31;5012889;28;20548;-68
2022/07/01 02:47:35;;;;;;;1999.90;999.90;;;;;;;21.74;59.58;95344.63;5030361;28;20045;-68
2022/07/01 02:50:01;;;;;;;1999.90;999.90;;;;;;;22.29;58.10;95348.31;5029933;28;20112;-68
2022/07/01 02:52:27;;;;;;;1999.90;999.90;;;;;;;22.27;57.50;95341.72;5030226;28;20112;-68
2022/07/01 02:54:52;;;;;;;1999.90;999.90;;;;;;;22.46;57.65;95349.59;5031358;28;20025;-68
2022/07/01 02:57:18;;;;;;;1999.90;999.90;;;;;;;22.69;56.81;95351.34;5032104;28;20068;-68
2022/07/01 02:59:43;;;;;;;1999.90;999.90;;;;;;;22.68;56.69;95339.72;5026401;28;20466;-68
2022/07/01 03:02:08;;;;;;;1999.90;999.90;;;;;;;22.40;57.04;95334.84;5031932;28;20029;-68
2022/07/01 03:04:33;;;;;;;1999.90;999.90;;;;;;;22.65;57.19;95337.75;5030208;28;20036;-68
2022/07/01 03:06:59;;;;;;;1999.90;999.90;;;;;;;22.35;57.67;95342.53;5031779;28;20033;-68
2022/07/01 03:09:24;;;;;;;1999.90;999.90;;;;;;;21.60;59.92;95344.47;5030136;28;20029;-69
2022/07/01 03:11:50;;;;;;;1999.90;999.90;;;;;;;21.13;61.41;95326.84;5031683;28;20108;-68
2022/07/01 03:14:15;;;;;;;1999.90;999.90;;;;;;;21.93;59.26;95346.38;5030267;28;20025;-67
2022/07/01 03:16:41;;;;;;;1999.90;999.90;;;;;;;21.97;58.87;95364.22;5029497;28;20107;-68
2022/07/01 03:19:06;;;;;;;1999.90;999.90;;;;;;;22.03;58.73;95357.31;5028356;28;20029;-68
2022/07/01 03:21:32;;;;;;;1999.90;999.90;;;;;;;22.38;57.82;95360.78;5022858;28;20105;-68
2022/07/01 03:23:58;;;;;;;1999.90;999.90;;;;;;;22.06;58.19;95364.72;5022553;28;20040;-68
2022/07/01 03:26:23;;;;;;;1999.90;999.90;;;;;;;21.91;59.25;95373.06;5030558;28;20025;-68
2022/07/01 03:28:49;;;;;;;1999.90;999.90;;;;;;;22.18;58.50;95376.47;5029958;28;20589;-68
2022/07/01 03:31:14;;;;;;;1999.90;999.90;;;;;;;21.76;59.84;95358.59;5030140;28;20095;-68
2022/07/01 03:33:39;;;;;;;1999.90;999.90;;;;;;;21.42;60.97;95363.22;5027778;28;20482;-68
2022/07/01 03:36:05;;;;;;;1999.90;999.90;;;;;;;21.35;61.02;95363.91;5029663;28;20152;-68
2022/07/01 03:38:30;;;;;;;1999.90;999.90;;;;;;;21.55;60.84;95351.00;5028887;28;20083;-68
2022/07/01 03:40:55;;;;;;;1999.90;999.90;;;;;;;21.95;59.24;95352.19;5029697;28;20033;-68
2022/07/01 03:43:21;;;;;;;1999.90;999.90;;;;;;;21.96;59.36;95357.25;5029120;28;20036;-68
2022/07/01 03:45:46;;;;;;;1999.90;999.90;;;;;;;22.26;58.54;95362.59;5028915;28;20033;-68
2022/07/01 03:48:12;;;;;;;1999.90;999.90;;;;;;;21.66;59.72;95346.50;5029283;28;20041;-68
2022/07/01 03:50:37;;;;;;;1999.90;999.90;;;;;;;21.93;59.29;95343.69;5030878;28;20131;-68
2022/07/01 03:55:46;;;;;;;1999.90;999.90;;;;;;;21.75;59.56;95376.78;5020550;28;20052;-68
2022/07/01 03:58:11;;;;;;;1999.90;999.90;;;;;;;21.97;59.44;95375.06;5030316;28;20029;-68
2022/07/01 04:00:38;;;;;;;1999.90;999.90;;;;;;;22.43;57.88;95368.56;5029954;28;20022;-68
2022/07/01 04:03:04;;;;;;;1999.90;999.90;;;;;;;22.79;57.32;95388.59;5029439;28;20061;-68
2022/07/01 04:05:33;;;;;;;1999.90;999.90;;;;;;;22.98;56.71;95382.97;5029725;28;20029;-68
2022/07/01 04:07:58;;;;;;;1999.90;999.90;;;;;;;23.14;56.48;95385.38;5031278;28;20036;-69
2022/07/01 04:10:23;;;;;;;1999.90;999.90;;;;;;;23.17;56.31;95368.34;5027898;28;20029;-68
2022/07/01 04:12:49;;;;;;;1999.90;999.90;;;;;;;23.42;55.40;95382.03;5025423;28;20772;-68
2022/07/01 04:15:14;;;;;;;1999.90;999.90;;;;;;;23.53;55.28;95377.44;5028713;28;20037;-69
2022/07/01 04:17:39;;;;;;;1999.90;999.90;;;;;;;23.47;54.80;95359.19;5028784;28;20030;-70
2022/07/01 04:20:05;;;;;;;1999.90;999.90;;;;;;;23.45;54.54;95358.78;5027451;28;20040;-68
2022/07/01 04:22:35;;;;;;;1999.90;999.90;;;;;;;23.43;54.54;95345.59;5030797;28;20044;-68
2022/07/01 04:25:03;;;;;;;1999.90;999.90;;;;;;;23.61;54.79;95345.66;5028674;28;20116;-68
2022/07/01 04:27:28;;;;;;;1999.90;999.90;;;;;;;23.68;54.42;95329.41;5030272;28;20429;-69
2022/07/01 04:29:54;;;;;;;1999.90;999.90;;;;;;;23.69;54.29;95324.75;5018848;28;20025;-68
2022/07/01 04:32:19;;;;;;;1999.90;999.90;;;;;;;23.16;55.19;95325.31;5026991;28;20030;-68
2022/07/01 04:34:45;;;;;;;1999.90;999.90;;;;;;;23.27;54.50;95318.75;5027534;28;20029;-69
2022/07/01 04:37:10;;;;;;;1999.90;999.90;;;;;;;23.48;54.32;95325.44;5030318;28;20025;-71
2022/07/01 04:39:35;;;;;;;1999.90;999.90;;;;;;;23.39;53.69;95354.88;5029075;28;20025;-73
2022/07/01 04:42:01;;;;;;;1999.90;999.90;;;;;;;23.16;54.26;95357.88;5027255;28;20079;-70
2022/07/01 04:44:28;;;;;;;1999.90;999.90;;;;;;;23.38;54.43;95353.31;5027447;28;20107;-71
2022/07/01 04:46:53;;;;;;;1999.90;999.90;;;;;;;23.50;54.02;95332.06;5028913;28;20052;-70
2022/07/01 04:49:18;;;;;;;1999.90;999.90;;;;;;;23.69;54.48;95341.06;5021607;28;20022;-72
2022/07/01 04:51:44;;;;;;;1999.90;999.90;;;;;;;23.81;53.78;95336.06;5025067;28;20021;-74
2022/07/01 04:54:10;;;;;;;1999.90;999.90;;;;;;;23.87;52.80;95314.72;5029447;28;20021;-70
2022/07/01 04:56:36;;;;;;;1999.90;999.90;;;;;;;24.00;53.01;95309.69;5029844;28;20057;-69
2022/07/01 04:59:02;;;;;;;1999.90;999.90;;;;;;;23.78;53.15;95279.00;5027149;28;20029;-65
2022/07/01 05:01:28;;;;;;;1999.90;999.90;;;;;;;23.55;53.52;95287.47;5018522;28;20030;-68
2022/07/01 05:03:54;;;;;;;1999.90;999.90;;;;;;;23.04;54.48;95274.88;5025640;28;20374;-69
2022/07/01 05:06:19;;;;;;;1999.90;999.90;;;;;;;22.76;55.57;95295.22;5029693;28;20109;-69
2022/07/01 05:08:44;;;;;;;1999.90;999.90;;;;;;;22.68;55.92;95314.53;5028907;28;20125;-69
2022/07/01 05:11:10;;;;;;;1999.90;999.90;;;;;;;22.96;55.18;95327.50;5027443;28;20113;-68
2022/07/01 05:13:36;;;;;;;1999.90;999.90;;;;;;;23.32;55.41;95345.53;5028563;28;20035;-68
2022/07/01 05:16:02;;;;;;;1999.90;999.90;;;;;;;23.60;54.12;95350.31;5028923;28;20033;-69
2022/07/01 05:23:56;;;;;;;1999.90;999.90;;;;;;;23.48;55.49;95336.28;5022296;28;20095;-69
2022/07/01 05:26:22;;;;;;;1999.90;999.90;;;;;;;23.83;55.24;95328.28;5028378;28;20485;-69
2022/07/01 05:28:48;;;;;;;1999.90;999.90;;;;;;;23.99;53.68;95327.94;5028127;28;20168;-70
2022/07/01 05:31:13;;;;;;;1999.90;999.90;;;;;;;24.12;53.20;95323.69;5025714;28;20116;-69
2022/07/01 05:33:39;;;;;;;1999.90;999.90;;;;;;;23.31;54.53;95333.13;5027630;28;20048;-69
2022/07/01 05:36:05;;;;;;;1999.90;999.90;;;;;;;22.88;56.47;95342.16;5026307;28;20073;-69
2022/07/01 05:38:31;;;;;;;1999.90;999.90;;;;;;;22.66;57.16;95343.94;5056361;22;20044;-68
2022/07/01 05:40:56;;;;;;;1999.90;999.90;;;;;;;23.13;56.36;95345.03;5048355;28;20025;-69
2022/07/01 05:43:21;;;;;;;1999.90;999.90;;;;;;;21.89;58.70;95353.69;5047393;28;20052;-68
2022/07/01 05:45:47;;;;;;;1999.90;999.90;;;;;;;22.20;58.39;95371.44;5048194;28;20425;-68
2022/07/01 05:48:12;;;;;;;1999.90;999.90;;;;;;;21.84;59.26;95383.81;5047125;28;20021;-68
2022/07/01 05:50:40;;;;;;;1999.90;999.90;;;;;;;22.13;59.33;95401.97;5047624;28;20064;-68
2022/07/01 05:53:05;;;;;;;1999.90;999.90;;;;;;;22.46;58.48;95406.53;5047880;28;20036;-68
2022/07/01 05:55:30;;;;;;;1999.90;999.90;;;;;;;22.50;58.19;95401.91;5049995;28;20017;-68
2022/07/01 05:57:56;;;;;;;1999.90;999.90;;;;;;;22.46;58.23;95389.47;5050143;28;20033;-69
2022/07/01 06:00:21;;;;;;;1999.90;999.90;;;;;;;23.47;56.38;95395.25;5052219;28;20025;-68
2022/07/01 06:02:46;;;;;;;1999.90;999.90;;;;;;;22.67;57.72;95392.38;5051970;28;20375;-68
2022/07/01 06:05:13;;;;;;;1999.90;999.90;;;;;;;22.21;59.54;95381.13;5052410;28;20029;-68
2022/07/01 06:07:40;;;;;;;1999.90;999.90;;;;;;;22.51;58.52;95391.84;5052899;28;20032;-68
2022/07/01 06:10:07;;;;;;;1999.90;999.90;;;;;;;22.88;57.63;95399.09;5051930;28;20095;-68
2022/07/01 06:12:32;;;;;;;1999.90;999.90;;;;;;;23.59;55.35;95408.47;5052271;28;20040;-68
2022/07/01 06:14:57;;;;;;;1999.90;999.90;;;;;;;22.44;56.95;95408.06;5052111;28;20032;-69
2022/07/01 06:17:23;;;;;;;1999.90;999.90;;;;;;;21.49;60.74;95420.13;5052093;28;20434;-69
2022/07/01 06:19:48;;;;;;;1999.90;999.90;;;;;;;21.77;59.51;95412.38;5050235;28;20095;-68
2022/07/01 06:22:16;;;;;;;1999.90;999.90;;;;;;;21.60;60.36;95422.97;5050710;28;20029;-69
2022/07/01 06:24:42;;;;;;;1999.90;999.90;;;;;;;21.50;60.40;95440.66;5036401;28;20026;-65
2022/07/01 06:27:07;;;;;;;1999.90;999.90;;;;;;;21.52;60.57;95441.06;5033093;28;20021;-65
2022/07/01 06:29:35;;;;;;;1999.90;999.90;;;;;;;21.09;62.94;95448.53;5051324;28;20538;-65
2022/07/01 06:32:00;;;;;;;1999.90;999.90;;;;;;;21.17;62.46;95450.19;5050232;28;20025;-65
2022/07/01 06:34:25;;;;;;;1999.90;999.90;;;;;;;20.76;63.63;95457.28;5052374;28;20032;-68
2022/07/01 06:36:51;;;;;;;1999.90;999.90;;;;;;;21.71;61.11;95427.38;5035881;28;20026;-70
2022/07/01 06:39:16;;;;;;;1999.90;999.90;;;;;;;21.85;59.64;95434.88;5032278;28;20032;-70
2022/07/01 06:41:41;;;;;;;1999.90;999.90;;;;;;;21.57;60.91;95446.16;5040705;28;20354;-68
2022/07/01 06:44:07;;;;;;;1999.90;999.90;;;;;;;22.37;58.37;95448.63;5051648;28;20017;-68
2022/07/01 06:46:32;;;;;;;1999.90;999.90;;;;;;;22.60;57.07;95457.38;5050455;28;20025;-68
2022/07/01 06:48:58;;;;;;;1999.90;999.90;;;;;;;21.77;59.34;95444.09;5050352;28;20108;-69
2022/07/01 06:51:24;;;;;;;1999.90;999.90;;;;;;;22.34;57.97;95435.84;5049576;28;20500;-69
2022/07/01 06:53:49;;;;;;;1999.90;999.90;;;;;;;21.93;58.76;95457.41;5039866;28;20026;-70
2022/07/01 06:56:15;;;;;;;1999.90;999.90;;;;;;;21.94;58.34;95385.84;5048984;28;20032;-70
2022/07/01 06:58:41;;;;;;;1999.90;999.90;;;;;;;21.07;60.67;95407.53;5047862;28;20033;-70
2022/07/01 07:01:06;;;;;;;1999.90;999.90;;;;;;;21.58;59.65;95442.28;5047508;28;20461;-69
2022/07/01 07:03:32;;;;;;;1999.90;999.90;;;;;;;21.88;58.98;95444.97;5031921;28;20087;-69
2022/07/01 07:06:00;;;;;;;1999.90;999.90;;;;;;;22.04;58.09;95429.31;5037575;28;20048;-68
2022/07/01 07:08:25;;;;;;;1999.90;999.90;;;;;;;22.55;57.26;95455.00;5048673;28;20021;-69
2022/07/01 07:10:51;;;;;;;1999.90;999.90;;;;;;;22.43;56.65;95412.72;5048128;28;20029;-70
2022/07/01 07:13:16;;;;;;;1999.90;999.90;;;;;;;22.07;58.10;95449.47;5037551;28;20556;-69
2022/07/01 07:15:41;;;;;;;1999.90;999.90;;;;;;;22.26;57.78;95443.88;5046996;28;20029;-69
2022/07/01 07:18:07;;;;;;;1999.90;999.90;;;;;;;22.08;57.92;95452.94;5050390;28;20094;-69
2022/07/01 07:20:34;;;;;;;1999.90;999.90;;;;;;;22.47;57.66;95465.03;5048619;28;20025;-69
2022/07/01 07:22:59;;;;;;;1999.90;999.90;;;;;;;20.97;62.37;95463.03;5050481;28;20114;-69
2022/07/01 07:25:24;;;;;;;1999.90;999.90;;;;;;;21.52;60.73;95476.25;5049975;28;20707;-67
2022/07/01 07:27:50;;;;;;;1999.90;999.90;;;;;;;21.37;60.52;95471.78;5050313;28;20025;-66
2022/07/01 07:30:16;;;;;;;1999.90;999.90;;;;;;;20.71;61.68;95461.06;5049258;28;20037;-66
2022/07/01 07:32:41;;;;;;;1999.90;999.90;;;;;;;20.92;61.47;95479.56;5049493;28;20108;-69
2022/07/01 07:35:08;;;;;;;1999.90;999.90;;;;;;;21.07;60.73;95461.63;5048967;28;20100;-67
2022/07/01 07:37:33;;;;;;;1999.90;999.90;;;;;;;20.30;63.22;95461.84;5050158;28;20033;-66
2022/07/01 07:40:00;;;;;;;1999.90;999.90;;;;;;;20.76;60.88;95441.06;5049766;28;20104;-66
2022/07/01 07:42:26;;;;;;;1999.90;999.90;;;;;;;20.61;62.39;95472.47;5050695;28;20168;-65
2022/07/01 07:44:52;;;;;;;1999.90;999.90;;;;;;;21.17;60.03;95452.13;5050424;28;20017;-66
2022/07/01 07:47:17;;;;;;;1999.90;999.90;;;;;;;20.97;61.11;95475.75;5048902;28;20055;-66
2022/07/01 07:49:42;;;;;;;1999.90;999.90;;;;;;;19.85;65.33;95496.47;5048238;28;20014;-66
2022/07/01 07:52:08;;;;;;;1999.90;999.90;;;;;;;19.72;65.08;95490.44;5047960;28;20029;-66
2022/07/01 07:54:33;;;;;;;1999.90;999.90;;;;;;;19.79;64.58;95437.72;5048841;28;20503;-68
2022/07/01 07:56:59;;;;;;;1999.90;999.90;;;;;;;19.35;66.26;95481.13;5047634;28;20424;-67
2022/07/01 07:59:24;;;;;;;1999.90;999.90;;;;;;;19.14;69.10;95521.84;5049102;28;20025;-65
2022/07/01 08:01:49;;;;;;;1999.90;999.90;;;;;;;18.74;68.96;95505.84;5046270;28;20025;-67
2022/07/01 08:04:14;;;;;;;1999.90;999.90;;;;;;;18.16;71.23;95522.38;5049879;28;20027;-66
2022/07/01 08:06:40;;;;;;;1999.90;999.90;;;;;;;17.12;75.09;95535.44;5047452;28;20086;-65
2022/07/01 08:09:06;;;;;;;1999.90;999.90;;;;;;;16.95;76.13;95553.69;5050163;28;20036;-66
2022/07/01 08:11:31;;;;;;;1999.90;999.90;;;;;;;16.52;76.43;95538.78;5049087;28;20040;-66
2022/07/01 08:13:57;;;;;;;1999.90;999.90;;;;;;;16.60;76.84;95584.34;5050576;28;20029;-67
2022/07/01 08:16:22;;;;;;;1999.90;999.90;;;;;;;15.57;82.07;95591.28;5049950;28;20086;-67
2022/07/01 08:18:47;;;;;;;1999.90;999.90;;;;;;;14.97;81.38;95571.69;5048738;28;20108;-67
2022/07/01 08:21:13;;;;;;;1999.90;999.90;;;;;;;15.23;83.21;95625.16;5048095;28;20623;-68
2022/07/01 08:23:38;;;;;;;1999.90;999.90;;;;;;;14.67;83.53;95623.59;5050470;28;20072;-66
2022/07/01 08:26:04;;;;;;;1999.90;999.90;;;;;;;14.42;83.61;95615.22;5051301;28;20032;-68
2022/07/01 08:28:30;;;;;;;1999.90;999.90;;;;;;;14.68;83.30;95617.13;5051193;28;20095;-68
2022/07/01 08:30:55;;;;;;;1999.90;999.90;;;;;;;14.85;83.52;95621.69;5049474;28;20028;-69
2022/07/01 08:33:20;;;;;;;1999.90;999.90;;;;;;;14.94;83.34;95633.91;5047941;28;20032;-68
2022/07/01 08:35:46;;;;;;;1999.90;999.90;;;;;;;14.44;86.39;95649.72;5049944;28;20457;-67
2022/07/01 08:38:12;;;;;;;1999.90;999.90;;;;;;;14.88;85.29;95658.53;5050133;28;20048;-67
2022/07/01 08:40:37;;;;;;;1999.90;999.90;;;;;;;14.49;86.52;95653.06;5049313;28;20025;-67
2022/07/01 08:43:05;;;;;;;1999.90;999.90;;;;;;;14.90;85.73;95659.78;5048820;28;20021;-68
2022/07/01 08:45:32;;;;;;;1999.90;999.90;;;;;;;15.03;84.82;95655.34;5050506;28;20469;-67
2022/07/01 08:48:00;;;;;;;1999.90;999.90;;;;;;;14.21;85.55;95655.22;5049426;28;20044;-66
2022/07/01 08:50:40;;;;;;;1999.90;999.90;;;;;;;15.33;83.51;95666.91;5048099;28;20040;-67
2022/07/01 08:53:06;;;;;;;1999.90;999.90;;;;;;;15.24;82.13;95647.38;5048534;28;20682;-66
2022/07/01 08:55:32;;;;;;;1999.90;999.90;;;;;;;15.22;82.64;95668.38;5049296;28;20028;-68
2022/07/01 08:57:58;;;;;;;1999.90;999.90;;;;;;;14.61;82.75;95638.25;5048930;28;20032;-68
2022/07/01 09:00:31;;;;;;;1999.90;999.90;;;;;;;15.16;82.16;95662.41;5048063;28;20481;-67
2022/07/01 09:02:57;;;;;;;1999.90;999.90;;;;;;;15.28;80.68;95651.78;5048090;28;20052;-66
2022/07/01 09:05:24;;;;;;;1999.90;999.90;;;;;;;14.88;82.27;95667.34;5047768;28;20371;-66
2022/07/01 09:07:56;;;;;;;1999.90;999.90;;;;;;;14.65;82.16;95650.69;5049557;28;20039;-66
2022/07/01 09:10:23;;;;;;;1999.90;999.90;;;;;;;15.10;81.63;95666.38;5048592;28;20063;-66
2022/07/01 09:12:49;;;;;;;1999.90;999.90;;;;;;;14.92;82.58;95668.28;5048857;28;20074;-67
2022/07/01 09:15:29;;;;;;;1999.90;999.90;;;;;;;15.06;82.41;95668.88;5050048;28;20021;-67
2022/07/01 09:18:03;;;;;;;1999.90;999.90;;;;;;;15.02;82.93;95659.91;5048215;28;20055;-67
2022/07/01 09:20:38;;;;;;;1999.90;999.90;;;;;;;14.97;82.10;95630.63;5048636;28;20025;-68
2022/07/01 09:23:13;;;;;;;1999.90;999.90;;;;;;;16.05;78.65;95631.06;5049593;28;20131;-65
2022/07/01 09:25:45;;;;;;;1999.90;999.90;;;;;;;15.41;79.90;95647.34;5049503;28;20033;-67
2022/07/01 09:28:13;;;;;;;1999.90;999.90;;;;;;;15.56;79.35;95659.41;5049696;28;20049;-69
2022/07/01 09:30:40;;;;;;;1999.90;999.90;;;;;;;15.41;80.64;95641.19;5049033;28;20104;-68
2022/07/01 09:33:09;;;;;;;1999.90;999.90;;;;;;;15.83;80.61;95661.66;5048852;28;20484;-69
2022/07/01 09:35:36;;;;;;;1999.90;999.90;;;;;;;15.28;82.37;95664.41;5048576;28;20124;-66
2022/07/01 09:38:02;;;;;;;1999.90;999.90;;;;;;;15.71;80.88;95658.09;5047835;28;20561;-65
2022/07/01 09:40:49;;;;;;;1999.90;999.90;;;;;;;15.14;83.01;95671.84;5048059;28;20055;-65
2022/07/01 09:43:17;;;;;;;1999.90;999.90;;;;;;;14.93;82.59;95690.50;5049686;28;20440;-64
2022/07/01 09:45:56;;;;;;;1999.90;999.90;;;;;;;15.27;81.78;95663.63;5047940;28;20052;-65
2022/07/01 09:48:23;;;;;;;1999.90;999.90;;;;;;;15.21;82.46;95677.53;5046434;28;20025;-66
2022/07/01 09:50:49;;;;;;;1999.90;999.90;;;;;;;15.17;81.40;95679.25;5046689;28;20036;-66
2022/07/01 09:53:14;;;;;;;1999.90;999.90;;;;;;;16.06;77.99;95677.47;5046878;28;20021;-66
2022/07/01 09:55:41;;;;;;;1999.90;999.90;;;;;;;15.88;78.97;95674.13;5048100;28;20025;-66
2022/07/01 09:58:06;;;;;;;1999.90;999.90;;;;;;;16.42;78.06;95678.81;5047621;28;20112;-65
2022/07/01 10:00:34;;;;;;;1999.90;999.90;;;;;;;16.08;79.01;95673.34;5047602;28;20155;-65
2022/07/01 10:03:01;;;;;;;1999.90;999.90;;;;;;;15.85;80.15;95677.44;5049261;28;20026;-68
2022/07/01 10:05:28;;;;;;;1999.90;999.90;;;;;;;16.17;79.40;95689.38;5047955;28;20032;-67
2022/07/01 10:08:15;;;;;;;1999.90;999.90;;;;;;;16.40;77.63;95700.63;5047859;28;20029;-67
2022/07/01 10:10:50;;;;;;;1999.90;999.90;;;;;;;16.34;76.35;95699.25;5047526;28;20631;-66
2022/07/01 10:13:24;;;;;;;1999.90;999.90;;;;;;;16.19;76.85;95708.66;5047582;28;20060;-67
2022/07/01 10:15:49;;;;;;;1999.90;999.90;;;;;;;15.88;78.10;95713.56;5049135;28;20017;-66
2022/07/01 10:18:25;;;;;;;1999.90;999.90;;;;;;;16.29;76.95;95716.31;5047227;28;20068;-67
2022/07/01 10:20:51;;;;;;;1999.90;999.90;;;;;;;16.30;76.00;95695.63;5047118;28;20508;-67
2022/07/01 10:23:21;;;;;;;1999.90;999.90;;;;;;;16.15;76.60;95704.25;5047771;28;20544;-66
2022/07/01 10:25:49;;;;;;;1999.90;999.90;;;;;;;15.97;77.69;95706.25;5049096;28;20021;-67
2022/07/01 10:28:14;;;;;;;1999.90;999.90;;;;;;;16.51;76.36;95723.28;5048985;28;20170;-67
2022/07/01 10:30:56;;;;;;;1999.90;999.90;;;;;;;15.92;77.37;95734.06;5047624;28;20433;-67
2022/07/01 10:33:47;;;;;;;1999.90;999.90;;;;;;;16.11;77.21;95733.63;5048128;28;20033;-67
2022/07/01 10:36:21;;;;;;;1999.90;999.90;;;;;;;16.29;76.67;95731.66;5047023;28;20028;-67
2022/07/01 10:39:06;;;;;;;1999.90;999.90;;;;;;;16.24;76.40;95729.16;5048787;28;20040;-67
2022/07/01 10:41:52;;;;;;;1999.90;999.90;;;;;;;16.47;76.79;95738.47;5048179;28;20021;-67
2022/07/01 10:44:19;;;;;;;1999.90;999.90;;;;;;;16.60;76.03;95731.28;5052500;28;20060;-68
2022/07/01 10:46:56;;;;;;;1999.90;999.90;;;;;;;17.00;74.97;95734.31;5052904;28;20031;-65
2022/07/01 10:49:37;;;;;;;1999.90;999.90;;;;;;;17.27;72.52;95719.47;5052886;28;20027;-65
2022/07/01 10:52:06;;;;;;;1999.90;999.90;;;;;;;17.09;72.21;95718.84;5049473;28;20126;-65
2022/07/01 10:54:45;;;;;;;1999.90;999.90;;;;;;;16.92;74.11;95723.63;5051742;28;20119;-67
2022/07/01 10:57:16;;;;;;;1999.90;999.90;;;;;;;17.30;73.52;95728.78;5052319;28;20028;-71
2022/07/01 10:59:49;;;;;;;1999.90;999.90;;;;;;;18.12;71.34;95732.28;5052184;28;20452;-68
2022/07/01 11:02:24;;;;;;;1999.90;999.90;;;;;;;17.84;69.97;95696.38;5051338;28;20037;-67